Time;durP1;ratioP1;P1;durP2;ratioP2;P2;SDS_P1;SDS_P2;PMS_P1;PMS_P2;Temp;Humidity;BMP_temperature;BMP_pressure;BME280_temperature;BME280_humidity;BME280_pressure;Samples;Min_cycle;Max_cycle;Signal;HPM_P1;HPM_P2
2023/02/16 00:01:28;;;;;;;23.20;13.90;;;;;;;-0.07;46.30;96344.63;5017981;28;20161;-68
2023/02/16 00:03:54;;;;;;;25.23;15.57;;;;;;;-0.10;46.21;96337.00;5023121;28;20120;-68
2023/02/16 00:06:19;;;;;;;20.58;11.55;;;;;;;-0.23;48.11;96339.50;5026169;28;20385;-68
2023/02/16 00:08:46;;;;;;;22.80;14.18;;;;;;;-0.14;46.62;96338.94;5033783;28;20103;-68
2023/02/16 00:14:12;;;;;;;25.50;14.85;;;;;;;-0.07;47.70;96336.78;5025665;28;20104;-68
2023/02/16 00:16:37;;;;;;;24.02;15.55;;;;;;;-0.08;46.65;96341.19;5021250;28;20090;-68
2023/02/16 00:19:20;;;;;;;22.48;14.07;;;;;;;-0.38;48.74;96336.88;5027639;28;20550;-68
2023/02/16 00:21:49;;;;;;;20.67;13.85;;;;;;;-0.21;47.81;96329.78;5044681;28;20112;-68
2023/02/16 00:24:14;;;;;;;25.48;16.02;;;;;;;-0.44;45.33;96335.47;5048058;28;20106;-68
2023/02/16 00:26:40;;;;;;;26.77;16.23;;;;;;;-0.45;46.66;96328.56;5030350;28;20063;-68
2023/02/16 00:29:05;;;;;;;24.45;16.15;;;;;;;-0.52;48.40;96331.59;5029281;28;20106;-68
2023/02/16 00:31:31;;;;;;;22.45;14.45;;;;;;;-0.40;48.52;96332.66;5004869;28;20083;-68
2023/02/16 00:33:57;;;;;;;21.98;13.73;;;;;;;-0.37;48.93;96332.50;5057117;28;20102;-68
2023/02/16 00:36:22;;;;;;;23.67;15.30;;;;;;;-0.32;48.20;96325.19;5023504;28;20097;-68
2023/02/16 00:38:48;;;;;;;23.30;14.38;;;;;;;-0.35;47.16;96325.38;5007489;28;20158;-68
2023/02/16 00:41:49;;;;;;;22.95;14.27;;;;;;;-0.33;48.16;96326.13;5024674;28;20123;-68
2023/02/16 00:44:26;;;;;;;25.05;15.38;;;;;;;-0.26;46.91;96322.22;5022666;28;20350;-68
2023/02/16 00:46:51;;;;;;;22.10;14.82;;;;;;;-0.33;47.13;96326.97;5018215;28;20295;-68
2023/02/16 00:49:18;;;;;;;22.17;14.07;;;;;;;-0.36;48.28;96318.47;5024776;28;20100;-68
2023/02/16 00:51:43;;;;;;;23.60;15.43;;;;;;;-0.42;49.04;96322.28;5007026;28;20089;-68
2023/02/16 00:54:09;;;;;;;19.98;12.90;;;;;;;-0.37;50.99;96322.03;5024365;28;20069;-68
2023/02/16 00:56:34;;;;;;;21.90;13.73;;;;;;;-0.35;50.94;96325.38;5039756;28;20097;-68
2023/02/16 00:59:00;;;;;;;22.25;14.25;;;;;;;-0.25;48.57;96323.91;5039905;28;20150;-68
2023/02/16 01:01:27;;;;;;;23.75;14.18;;;;;;;-0.35;48.70;96333.22;5039593;28;20095;-68
2023/02/16 01:03:52;;;;;;;22.77;14.85;;;;;;;-0.39;47.99;96329.09;5039516;28;20072;-68
2023/02/16 01:12:04;;;;;;;24.38;15.27;;;;;;;-0.40;46.94;96330.06;5037014;28;20571;-68
2023/02/16 01:14:30;;;;;;;21.27;12.55;;;;;;;-0.36;47.69;96321.94;5006528;28;20070;-68
2023/02/16 01:16:56;;;;;;;20.52;13.32;;;;;;;-0.39;47.17;96313.41;5022157;28;20098;-68
2023/02/16 01:19:21;;;;;;;23.95;15.07;;;;;;;-0.39;47.23;96321.25;5022785;28;20270;-68
2023/02/16 01:21:46;;;;;;;24.02;15.38;;;;;;;-0.34;46.84;96319.22;5023769;28;20455;-68
2023/02/16 01:24:12;;;;;;;24.15;14.55;;;;;;;-0.35;47.06;96317.53;5022874;28;20092;-68
2023/02/16 01:26:39;;;;;;;21.77;13.23;;;;;;;-0.34;47.08;96314.81;5024512;28;20095;-69
2023/02/16 01:29:05;;;;;;;23.02;13.55;;;;;;;-0.22;46.74;96313.25;5022321;28;20094;-69
2023/02/16 01:31:30;;;;;;;23.73;14.18;;;;;;;-0.24;45.83;96303.81;5023105;28;20449;-69
2023/02/16 01:33:55;;;;;;;24.50;14.98;;;;;;;-0.33;45.64;96303.41;5038899;28;20103;-68
2023/02/16 01:36:30;;;;;;;24.55;14.02;;;;;;;-0.49;47.28;96308.75;5055680;28;20103;-69
2023/02/16 01:38:55;;;;;;;20.35;12.68;;;;;;;-0.56;49.60;96307.41;5022665;28;20094;-69
2023/02/16 01:41:42;;;;;;;20.10;11.82;;;;;;;-0.47;50.70;96304.25;5023310;28;20101;-69
2023/02/16 01:44:24;;;;;;;20.70;12.63;;;;;;;-0.26;49.82;96301.28;5023408;28;20476;-69
2023/02/16 01:47:02;;;;;;;23.23;13.57;;;;;;;-0.14;49.44;96297.06;5023188;28;20523;-68
2023/02/16 01:49:28;;;;;;;24.75;15.55;;;;;;;-0.11;48.50;96296.88;5021945;28;20174;-69
2023/02/16 01:52:22;;;;;;;25.70;15.32;;;;;;;-0.01;48.16;96285.81;5024469;28;20177;-69
2023/02/16 01:55:06;;;;;;;24.42;14.70;;;;;;;0.01;47.59;96279.59;5016158;28;20363;-69
2023/02/16 01:57:46;;;;;;;23.30;14.10;;;;;;;-0.06;47.48;96281.72;5023134;28;20142;-69
2023/02/16 02:00:30;;;;;;;22.65;13.63;;;;;;;-0.15;47.18;96281.44;5023433;28;20137;-69
2023/02/16 02:05:41;;;;;;;27.85;16.10;;;;;;;-0.14;47.89;96283.97;5019234;28;20575;-70
2023/02/16 02:08:18;;;;;;;21.15;13.10;;;;;;;-0.11;49.04;96285.56;5021725;28;20105;-69
2023/02/16 02:10:59;;;;;;;27.02;17.42;;;;;;;-0.23;48.55;96280.13;5035937;28;20065;-69
2023/02/16 02:13:53;;;;;;;21.98;12.02;;;;;;;-0.31;50.68;96282.38;5023076;28;20164;-69
2023/02/16 02:16:19;;;;;;;28.05;17.05;;;;;;;-0.34;48.68;96272.94;5010872;28;20118;-69
2023/02/16 02:18:45;;;;;;;21.00;12.20;;;;;;;-0.34;49.99;96278.19;5022034;28;20169;-69
2023/02/16 02:24:42;;;;;;;23.58;13.88;;;;;;;-0.36;49.58;96279.22;5033621;28;20127;-70
2023/02/16 02:27:23;;;;;;;25.00;15.15;;;;;;;-0.33;47.95;96284.28;5023394;28;20162;-69
2023/02/16 02:29:57;;;;;;;28.30;15.82;;;;;;;-0.28;48.15;96279.59;5021257;28;20116;-69
2023/02/16 02:32:28;;;;;;;24.58;15.25;;;;;;;-0.29;47.99;96277.06;5022809;28;20121;-70
2023/02/16 02:35:06;;;;;;;25.30;15.93;;;;;;;-0.33;47.37;96274.63;5022815;28;20501;-69
2023/02/16 02:37:50;;;;;;;26.23;14.85;;;;;;;-0.39;47.46;96275.00;5022685;28;20211;-69
2023/02/16 02:40:49;;;;;;;27.13;15.48;;;;;;;-0.65;45.13;96277.41;5020493;28;20132;-70
2023/02/16 02:43:44;;;;;;;29.70;17.50;;;;;;;-0.77;45.19;96279.00;5021113;28;20505;-70
2023/02/16 02:46:23;;;;;;;28.08;16.65;;;;;;;-0.75;46.95;96274.50;5047214;28;20590;-70
2023/02/16 02:48:48;;;;;;;25.65;16.20;;;;;;;-0.73;46.39;96275.25;5057209;28;20137;-70
2023/02/16 02:51:29;;;;;;;27.17;15.82;;;;;;;-0.73;47.54;96270.03;5046012;28;20078;-70
2023/02/16 03:02:54;;;;;;;25.00;15.00;;;;;;;-0.89;47.12;96264.84;5013617;28;20082;-72
2023/02/16 03:05:19;;;;;;;24.60;15.02;;;;;;;-0.88;47.00;96258.69;5020434;28;20108;-72
2023/02/16 03:07:45;;;;;;;22.73;13.00;;;;;;;-0.95;47.49;96259.97;5020874;28;20317;-72
2023/02/16 03:13:00;;;;;;;25.75;14.82;;;;;;;-1.10;47.71;96262.53;5020538;28;20110;-71
2023/02/16 03:15:26;;;;;;;26.33;16.35;;;;;;;-1.04;48.60;96253.50;5004448;28;20267;-71
2023/02/16 03:31:33;;;;;;;22.17;12.88;;;;;;;-0.99;47.97;96259.28;5019701;28;20461;-72
2023/02/16 03:33:59;;;;;;;22.45;13.93;;;;;;;-0.97;47.65;96253.97;5002198;28;20114;-72
2023/02/16 03:36:26;;;;;;;23.40;14.20;;;;;;;-1.09;46.41;96261.59;5021206;28;20088;-72
2023/02/16 03:38:52;;;;;;;27.33;15.93;;;;;;;-1.28;46.77;96261.84;5020549;28;20097;-72
2023/02/16 03:41:17;;;;;;;27.10;15.65;;;;;;;-1.36;45.76;96257.03;5019928;28;20099;-73
2023/02/16 03:43:42;;;;;;;23.70;14.18;;;;;;;-1.35;47.26;96257.88;5021377;28;20124;-72
2023/02/16 03:46:08;;;;;;;21.13;12.73;;;;;;;-1.32;47.82;96249.88;5020551;28;20101;-73
2023/02/16 03:48:33;;;;;;;21.85;12.90;;;;;;;-1.32;48.54;96260.34;5003957;28;20100;-72
2023/02/16 03:50:59;;;;;;;23.67;13.70;;;;;;;-1.24;48.45;96255.50;5021835;28;20090;-72
2023/02/16 03:53:24;;;;;;;26.20;16.00;;;;;;;-1.24;47.96;96252.03;5021163;28;20542;-72
2023/02/16 03:55:49;;;;;;;24.00;13.38;;;;;;;-1.29;49.35;96257.53;5021384;28;20527;-72
2023/02/16 03:58:20;;;;;;;24.30;14.68;;;;;;;-1.30;48.83;96252.38;5021940;28;20080;-72
2023/02/16 04:00:46;;;;;;;23.92;15.02;;;;;;;-1.24;48.54;96249.44;5019258;28;20153;-73
2023/02/16 04:03:11;;;;;;;27.70;16.73;;;;;;;-1.16;48.13;96252.44;5020476;28;20082;-72
2023/02/16 04:05:37;;;;;;;31.10;18.33;;;;;;;-1.19;47.24;96250.00;5003716;28;20155;-72
2023/02/16 04:08:02;;;;;;;31.25;19.17;;;;;;;-1.24;47.39;96241.59;5007913;28;20108;-72
2023/02/16 04:10:28;;;;;;;31.90;19.50;;;;;;;-1.25;46.78;96242.53;5023949;28;20080;-72
2023/02/16 04:12:53;;;;;;;29.42;16.25;;;;;;;-1.34;49.28;96244.75;5023715;28;20368;-72
2023/02/16 04:15:20;;;;;;;28.63;17.05;;;;;;;-1.32;48.81;96244.66;5025543;28;20100;-72
2023/02/16 04:17:46;;;;;;;28.75;17.45;;;;;;;-1.27;48.49;96242.59;5025501;28;20291;-72
2023/02/16 04:20:14;;;;;;;27.27;16.13;;;;;;;-1.24;48.62;96245.06;5040101;28;20140;-72
2023/02/16 04:22:40;;;;;;;29.38;17.40;;;;;;;-1.33;48.79;96248.16;5024563;28;20135;-72
2023/02/16 04:25:06;;;;;;;25.10;15.85;;;;;;;-1.33;48.75;96250.78;5025263;28;20106;-73
2023/02/16 04:27:31;;;;;;;29.70;17.85;;;;;;;-1.24;48.23;96246.81;5041058;28;20070;-72
2023/02/16 04:29:56;;;;;;;31.55;19.08;;;;;;;-1.26;48.24;96249.50;5023415;28;20099;-72
2023/02/16 04:32:22;;;;;;;27.30;16.10;;;;;;;-1.28;47.50;96247.91;5023524;28;20318;-72
2023/02/16 04:34:47;;;;;;;25.80;16.10;;;;;;;-1.27;48.16;96250.44;5025086;28;20106;-72
2023/02/16 04:37:13;;;;;;;31.42;18.15;;;;;;;-1.24;47.92;96249.44;5024848;28;20104;-72
2023/02/16 04:39:38;;;;;;;28.45;15.85;;;;;;;-1.26;48.01;96249.50;5023503;28;20527;-72
2023/02/16 04:42:04;;;;;;;21.35;13.68;;;;;;;-1.28;48.20;96251.38;5037551;28;20101;-73
2023/02/16 04:44:29;;;;;;;25.75;15.27;;;;;;;-1.24;47.89;96252.03;5033844;28;20120;-72
2023/02/16 04:46:54;;;;;;;26.05;16.05;;;;;;;-1.25;48.21;96248.56;5031759;28;20076;-72
2023/02/16 04:49:20;;;;;;;27.40;15.82;;;;;;;-1.25;47.49;96251.19;5037697;28;20480;-72
2023/02/16 04:51:46;;;;;;;27.75;14.93;;;;;;;-1.27;48.45;96257.44;5037045;28;20425;-72
2023/02/16 04:54:11;;;;;;;26.35;15.15;;;;;;;-1.32;48.30;96252.50;5044780;28;20634;-72
2023/02/16 04:56:36;;;;;;;29.02;16.63;;;;;;;-1.32;47.22;96249.03;5039797;28;20218;-72
2023/02/16 04:59:02;;;;;;;28.35;16.85;;;;;;;-1.28;47.68;96248.78;5068971;28;20106;-72
2023/02/16 05:01:27;;;;;;;26.48;16.17;;;;;;;-1.32;48.01;96244.66;5038117;28;20158;-73
2023/02/16 05:03:53;;;;;;;30.83;17.30;;;;;;;-1.31;47.83;96240.25;5041793;28;20093;-72
2023/02/16 05:06:18;;;;;;;30.88;18.05;;;;;;;-1.36;47.73;96238.75;5029893;28;20189;-73
2023/02/16 05:08:44;;;;;;;32.22;18.73;;;;;;;-1.37;48.03;96244.06;5033039;28;20102;-72
2023/02/16 05:16:42;;;;;;;31.57;17.97;;;;;;;-1.48;48.94;96249.91;5041630;28;20147;-73
2023/02/16 05:19:07;;;;;;;30.08;17.75;;;;;;;-1.41;49.32;96255.59;5041672;28;20704;-73
2023/02/16 05:21:34;;;;;;;33.00;19.45;;;;;;;-1.28;48.00;96250.53;5043960;28;20422;-73
2023/02/16 05:24:01;;;;;;;30.92;18.30;;;;;;;-1.31;47.93;96262.00;5043826;28;20266;-73
2023/02/16 05:26:26;;;;;;;28.58;17.42;;;;;;;-1.25;47.94;96258.19;5044507;28;20082;-73
2023/02/16 05:28:52;;;;;;;31.15;18.77;;;;;;;-1.34;47.81;96257.81;5043815;28;20100;-72
2023/02/16 05:31:17;;;;;;;32.17;17.88;;;;;;;-1.32;47.71;96264.69;5044385;28;20459;-74
2023/02/16 05:33:43;;;;;;;35.58;21.30;;;;;;;-1.34;49.24;96270.00;5026338;28;20155;-73
2023/02/16 05:36:08;;;;;;;33.30;20.27;;;;;;;-1.26;48.88;96259.97;5043768;28;20124;-73
2023/02/16 05:38:34;;;;;;;30.90;19.80;;;;;;;-1.25;48.55;96263.44;5024591;28;20120;-73
2023/02/16 05:40:59;;;;;;;34.10;20.10;;;;;;;-1.24;47.95;96270.34;5041079;28;20113;-72
2023/02/16 05:43:24;;;;;;;31.45;18.85;;;;;;;-1.31;47.42;96258.53;5043313;28;20069;-73
2023/02/16 05:45:50;;;;;;;31.45;19.73;;;;;;;-1.32;47.14;96259.47;5043344;28;20430;-73
2023/02/16 05:48:15;;;;;;;41.70;23.33;;;;;;;-1.48;45.34;96269.03;5042536;28;20464;-73
2023/02/16 05:50:41;;;;;;;41.25;23.63;;;;;;;-1.52;45.87;96267.50;5041808;28;20072;-72
2023/02/16 05:53:06;;;;;;;39.85;24.08;;;;;;;-1.61;46.33;96265.41;5043135;28;21017;-72
2023/02/16 05:55:32;;;;;;;38.50;21.67;;;;;;;-1.65;46.53;96266.50;5041600;28;20104;-73
2023/02/16 05:57:57;;;;;;;37.30;21.92;;;;;;;-1.70;46.94;96265.94;5044011;28;20071;-72
2023/02/16 06:00:22;;;;;;;39.88;21.55;;;;;;;-1.79;47.88;96262.06;5043211;28;20108;-73
2023/02/16 06:02:48;;;;;;;33.25;19.33;;;;;;;-1.80;47.57;96255.97;5042011;28;20080;-73
2023/02/16 06:05:13;;;;;;;34.22;20.50;;;;;;;-1.81;47.78;96272.59;5042463;28;20613;-73
2023/02/16 06:07:39;;;;;;;32.00;19.17;;;;;;;-1.75;47.87;96268.78;5041835;28;20080;-73
2023/02/16 06:10:05;;;;;;;30.02;18.30;;;;;;;-1.68;46.85;96277.13;5043325;28;20226;-73
2023/02/16 06:12:31;;;;;;;29.48;17.48;;;;;;;-1.73;47.63;96277.41;5042618;28;20109;-73
2023/02/16 06:14:57;;;;;;;35.35;19.38;;;;;;;-1.69;46.91;96276.31;5043163;28;20163;-73
2023/02/16 06:17:22;;;;;;;33.75;20.23;;;;;;;-1.72;47.15;96281.69;5026705;28;20107;-74
2023/02/16 06:19:48;;;;;;;30.60;19.02;;;;;;;-1.85;48.02;96278.91;5025021;28;20077;-73
2023/02/16 06:22:13;;;;;;;39.33;23.33;;;;;;;-2.08;48.92;96280.97;5041650;28;20121;-73
2023/02/16 06:24:39;;;;;;;34.75;19.38;;;;;;;-2.05;48.96;96285.19;5041474;28;20113;-73
2023/02/16 06:27:04;;;;;;;35.58;21.15;;;;;;;-1.94;47.83;96287.25;5042921;28;20073;-72
2023/02/16 06:29:30;;;;;;;35.53;20.40;;;;;;;-1.88;48.56;96273.84;5040244;28;20102;-73
2023/02/16 06:31:55;;;;;;;36.33;19.30;;;;;;;-1.83;47.70;96277.06;5042457;28;20115;-73
2023/02/16 06:34:21;;;;;;;39.28;22.75;;;;;;;-1.86;48.32;96277.22;5041274;28;20085;-73
2023/02/16 06:36:46;;;;;;;39.47;23.13;;;;;;;-1.96;49.35;96276.88;5042842;28;20201;-73
2023/02/16 06:39:11;;;;;;;36.30;22.70;;;;;;;-2.17;49.26;96271.88;5041718;28;20409;-73
2023/02/16 06:41:39;;;;;;;39.33;21.75;;;;;;;-2.19;48.90;96281.56;5041701;28;20113;-72
2023/02/16 06:44:12;;;;;;;37.15;21.52;;;;;;;-2.17;49.90;96273.66;5039103;28;20120;-72
2023/02/16 06:46:38;;;;;;;37.92;21.73;;;;;;;-2.16;50.16;96278.81;5025006;28;20071;-73
2023/02/16 06:49:04;;;;;;;39.03;22.20;;;;;;;-2.13;49.59;96281.22;5040591;28;20458;-73
2023/02/16 06:51:29;;;;;;;35.60;21.38;;;;;;;-1.92;49.38;96267.09;5041145;28;20341;-73
2023/02/16 06:53:55;;;;;;;37.72;21.83;;;;;;;-1.82;50.41;96273.53;5040279;28;20197;-73
2023/02/16 06:56:20;;;;;;;38.97;22.70;;;;;;;-1.89;50.39;96273.03;5023907;28;20206;-73
2023/02/16 06:58:45;;;;;;;36.92;21.15;;;;;;;-1.78;49.83;96272.41;5041220;28;20592;-73
2023/02/16 07:01:11;;;;;;;39.83;23.88;;;;;;;-1.93;50.13;96270.66;5041733;28;20442;-73
2023/02/16 07:03:36;;;;;;;33.10;19.92;;;;;;;-1.86;50.00;96272.00;5041931;28;20545;-73
2023/02/16 07:06:02;;;;;;;35.13;21.17;;;;;;;-1.96;49.92;96271.66;5039719;28;20093;-73
2023/02/16 07:08:27;;;;;;;37.40;21.77;;;;;;;-1.77;50.17;96268.03;5041708;28;20132;-73
2023/02/16 07:10:53;;;;;;;37.40;23.60;;;;;;;-1.68;50.35;96267.53;5040238;28;20076;-73
2023/02/16 07:13:18;;;;;;;37.75;22.23;;;;;;;-1.57;50.99;96274.75;5041149;28;20382;-73
2023/02/16 07:15:44;;;;;;;35.05;21.38;;;;;;;-1.42;51.07;96280.06;5036544;28;20484;-68
2023/02/16 07:18:10;;;;;;;38.10;20.88;;;;;;;-1.14;49.76;96279.34;5040601;28;20130;-71
2023/02/16 07:20:36;;;;;;;28.88;18.60;;;;;;;-0.93;49.77;96279.03;5040352;28;20099;-69
2023/02/16 07:23:02;;;;;;;36.10;21.17;;;;;;;-0.74;49.62;96280.59;5039008;28;20539;-71
2023/02/16 07:25:27;;;;;;;32.80;19.77;;;;;;;-0.60;48.83;96275.34;5041108;28;20142;-69
2023/02/16 07:27:53;;;;;;;32.10;19.15;;;;;;;-0.55;48.90;96282.94;5036874;28;20086;-71
2023/02/16 07:30:19;;;;;;;34.45;20.55;;;;;;;-0.38;48.59;96284.53;5032492;28;20698;-68
2023/02/16 07:32:45;;;;;;;36.75;20.80;;;;;;;-0.23;48.81;96279.31;5034799;28;20167;-67
2023/02/16 07:35:11;;;;;;;31.75;20.38;;;;;;;-0.11;49.32;96281.16;5037699;28;20069;-72
2023/02/16 07:37:36;;;;;;;31.70;19.33;;;;;;;0.02;48.90;96286.50;5036390;28;20541;-68
2023/02/16 07:40:01;;;;;;;28.27;18.23;;;;;;;0.17;48.51;96291.72;5039923;28;20445;-71
2023/02/16 07:42:31;;;;;;;36.60;21.38;;;;;;;0.28;48.13;96291.84;5033306;28;20392;-68
2023/02/16 07:44:57;;;;;;;37.63;21.20;;;;;;;0.51;47.89;96294.81;5035278;28;20149;-71
2023/02/16 07:47:22;;;;;;;35.28;20.30;;;;;;;0.62;47.84;96290.66;5039515;28;20620;-68
2023/02/16 07:49:47;;;;;;;33.40;19.85;;;;;;;0.76;47.70;96293.25;5030435;28;20100;-70
2023/02/16 07:52:13;;;;;;;32.50;20.33;;;;;;;0.84;47.93;96301.44;5035220;28;20121;-68
2023/02/16 07:54:38;;;;;;;31.98;19.48;;;;;;;1.03;47.62;96297.63;5036281;28;20077;-70
2023/02/16 07:57:04;;;;;;;36.30;20.70;;;;;;;1.17;47.47;96298.47;5036071;28;20161;-71
2023/02/16 07:59:29;;;;;;;31.13;18.60;;;;;;;1.24;47.28;96302.38;5033431;28;20496;-69
2023/02/16 08:01:54;;;;;;;29.88;19.38;;;;;;;1.49;46.86;96300.72;5033944;28;20176;-71
2023/02/16 08:04:20;;;;;;;35.45;19.65;;;;;;;1.56;46.88;96303.78;5036627;28;20406;-67
2023/02/16 08:06:47;;;;;;;38.22;22.75;;;;;;;1.56;48.11;96309.88;5034151;28;20075;-71
2023/02/16 08:09:13;;;;;;;29.92;19.30;;;;;;;1.33;48.24;96301.75;5036486;28;20088;-71
2023/02/16 08:11:38;;;;;;;33.97;19.48;;;;;;;0.62;50.33;96316.88;5036018;28;20534;-71
2023/02/16 08:14:04;;;;;;;30.10;18.48;;;;;;;1.27;49.86;96312.66;5040653;28;20064;-68
2023/02/16 08:16:29;;;;;;;31.73;19.80;;;;;;;1.06;49.53;96307.06;5035768;28;21441;-69
2023/02/16 08:18:55;;;;;;;32.63;18.90;;;;;;;1.56;48.90;96314.28;5037051;28;20218;-70
2023/02/16 08:21:22;;;;;;;28.88;18.77;;;;;;;0.11;52.43;96320.91;5039101;28;20088;-71
2023/02/16 08:23:58;;;;;;;28.58;18.33;;;;;;;1.49;48.70;96321.72;5033663;28;20065;-71
2023/02/16 08:26:26;;;;;;;28.23;19.08;;;;;;;0.69;51.24;96319.00;5035842;28;20431;-69
2023/02/16 08:28:51;;;;;;;30.10;19.13;;;;;;;2.32;46.89;96324.88;5036064;28;20185;-71
2023/02/16 08:31:22;;;;;;;26.70;18.48;;;;;;;1.96;48.27;96319.44;5038615;28;20069;-68
2023/02/16 08:33:47;;;;;;;29.77;18.83;;;;;;;2.75;47.25;96320.94;5040226;28;20100;-69
2023/02/16 08:36:31;;;;;;;27.83;18.75;;;;;;;2.85;47.50;96318.47;5040990;28;20547;-69
2023/02/16 08:38:56;;;;;;;36.60;23.63;;;;;;;3.39;45.97;96312.81;5040346;28;20080;-68
2023/02/16 08:41:23;;;;;;;28.02;18.75;;;;;;;1.22;49.90;96322.59;5037494;28;20180;-71
2023/02/16 08:43:48;;;;;;;24.63;16.35;;;;;;;0.87;52.02;96323.16;5034913;28;20526;-69
2023/02/16 08:46:14;;;;;;;27.13;15.95;;;;;;;1.20;51.58;96314.03;5040674;28;20075;-70
2023/02/16 08:48:39;;;;;;;26.73;18.42;;;;;;;0.26;52.99;96324.34;5038478;28;20098;-68
2023/02/16 08:51:05;;;;;;;25.92;16.92;;;;;;;1.70;49.55;96318.63;5039841;28;20066;-71
2023/02/16 08:53:32;;;;;;;30.48;18.98;;;;;;;2.10;49.02;96315.84;5045052;28;20079;-70
2023/02/16 08:55:59;;;;;;;26.63;16.33;;;;;;;2.02;48.21;96323.44;5041537;28;20096;-70
2023/02/16 08:58:25;;;;;;;24.95;16.38;;;;;;;1.50;48.82;96331.28;5044558;28;20388;-70
2023/02/16 09:00:50;;;;;;;27.90;18.67;;;;;;;1.77;49.11;96333.00;5042762;28;20149;-70
2023/02/16 09:03:17;;;;;;;23.50;14.70;;;;;;;2.17;48.12;96332.03;5036900;28;20113;-69
2023/02/16 09:05:44;;;;;;;22.30;16.83;;;;;;;1.22;49.76;96339.19;5032308;28;20214;-68
2023/02/16 09:08:09;;;;;;;25.00;14.70;;;;;;;3.04;46.81;96317.94;5042524;28;20557;-71
2023/02/16 09:10:35;;;;;;;23.85;16.23;;;;;;;3.51;44.62;96317.16;5045192;28;20069;-68
2023/02/16 09:13:00;;;;;;;20.42;14.32;;;;;;;3.12;45.97;96311.28;5041827;28;20079;-69
2023/02/16 09:15:26;;;;;;;26.50;15.52;;;;;;;3.71;44.21;96314.81;5037380;28;20068;-67
2023/02/16 09:17:51;;;;;;;29.38;19.90;;;;;;;3.42;45.19;96305.53;5033039;28;20078;-70
2023/02/16 09:20:19;;;;;;;23.33;15.38;;;;;;;2.49;47.07;96320.19;5033002;28;20080;-68
2023/02/16 09:22:45;;;;;;;24.73;14.98;;;;;;;3.27;46.05;96325.13;5042618;28;20109;-71
2023/02/16 09:25:11;;;;;;;21.50;15.35;;;;;;;1.78;48.07;96332.06;5043208;28;20149;-71
2023/02/16 09:27:36;;;;;;;23.00;14.98;;;;;;;3.27;44.66;96312.78;5043600;28;20532;-71
2023/02/16 09:30:02;;;;;;;23.08;16.33;;;;;;;2.39;46.50;96322.63;5045232;28;20056;-68
2023/02/16 09:32:28;;;;;;;17.65;12.35;;;;;;;3.71;44.78;96316.63;5040902;28;20633;-68
2023/02/16 09:34:54;;;;;;;45.55;31.33;;;;;;;4.09;43.51;96319.88;5044125;28;20111;-68
2023/02/16 09:37:19;;;;;;;30.42;19.48;;;;;;;4.04;44.01;96322.88;5034905;28;20176;-70
2023/02/16 09:39:46;;;;;;;21.05;14.77;;;;;;;3.37;44.47;96328.72;5030257;28;20087;-68
2023/02/16 09:42:32;;;;;;;23.67;16.83;;;;;;;2.14;48.51;96333.09;5047724;28;20052;-70
2023/02/16 09:45:04;;;;;;;36.17;22.73;;;;;;;1.64;51.00;96330.38;5053971;28;20095;-72
2023/02/16 09:47:33;;;;;;;30.42;18.30;;;;;;;1.01;53.11;96328.34;5048965;28;20142;-71
2023/02/16 09:50:20;;;;;;;20.10;14.68;;;;;;;3.38;46.46;96322.53;5049593;28;20436;-72
2023/02/16 09:53:07;;;;;;;33.28;22.23;;;;;;;3.84;45.71;96322.63;5034605;28;20181;-71
2023/02/16 09:55:53;;;;;;;19.83;13.00;;;;;;;4.45;43.15;96313.50;5050765;28;20060;-73
2023/02/16 09:58:24;;;;;;;21.60;13.40;;;;;;;4.80;42.60;96309.00;5025445;28;20120;-74
2023/02/16 10:00:51;;;;;;;20.50;12.68;;;;;;;5.15;40.96;96311.53;5004184;28;20516;-74
2023/02/16 10:03:40;;;;;;;22.33;14.98;;;;;;;3.35;44.97;96321.88;5039774;28;20452;-73
2023/02/16 10:06:09;;;;;;;21.70;13.85;;;;;;;4.50;43.26;96317.56;5056058;28;20082;-73
2023/02/16 10:08:38;;;;;;;20.98;13.30;;;;;;;3.24;45.13;96326.19;5047295;28;20139;-74
2023/02/16 10:14:50;;;;;;;19.13;14.13;;;;;;;3.80;45.44;96318.53;5025539;28;20108;-72
2023/02/16 10:17:29;;;;;;;19.30;13.25;;;;;;;2.73;48.04;96322.00;5022112;28;20525;-73
2023/02/16 10:20:00;;;;;;;20.88;13.93;;;;;;;4.00;44.65;96316.16;5049108;28;20176;-74
2023/02/16 10:22:34;;;;;;;21.52;15.82;;;;;;;4.45;44.82;96310.88;5046470;28;20694;-74
2023/02/16 10:25:02;;;;;;;18.55;12.05;;;;;;;4.97;42.04;96320.81;5044497;28;20072;-74
2023/02/16 10:27:37;;;;;;;25.37;16.73;;;;;;;4.01;44.21;96308.13;5061201;28;20054;-73
2023/02/16 10:30:12;;;;;;;21.48;14.88;;;;;;;2.74;47.54;96318.41;5042092;28;20409;-75
2023/02/16 10:32:51;;;;;;;20.23;13.70;;;;;;;3.70;45.82;96312.31;5056452;28;20076;-74
2023/02/16 10:35:19;;;;;;;18.08;12.13;;;;;;;4.78;43.52;96315.34;5044523;28;20033;-73
2023/02/16 10:37:59;;;;;;;21.80;15.00;;;;;;;3.51;46.74;96311.91;5044447;28;20076;-64
2023/02/16 10:40:55;;;;;;;21.02;13.90;;;;;;;4.18;45.12;96311.25;5040534;28;20088;-64
2023/02/16 10:43:43;;;;;;;22.45;15.43;;;;;;;4.15;44.93;96308.88;5039151;28;20349;-65
2023/02/16 10:46:16;;;;;;;18.25;12.90;;;;;;;4.57;43.97;96313.50;5052318;28;20119;-64
2023/02/16 10:48:42;;;;;;;19.52;13.48;;;;;;;5.09;42.40;96310.25;5043470;28;20560;-64
2023/02/16 10:51:09;;;;;;;25.13;14.27;;;;;;;4.26;44.33;96315.94;5045292;28;20050;-64
2023/02/16 10:53:35;;;;;;;19.48;13.27;;;;;;;4.75;43.19;96310.31;5039735;28;20071;-64
2023/02/16 10:56:00;;;;;;;18.73;13.68;;;;;;;3.23;45.89;96324.47;5044956;28;20071;-64
2023/02/16 10:58:38;;;;;;;17.52;12.75;;;;;;;4.28;44.37;96319.25;5050275;28;20512;-64
2023/02/16 11:01:15;;;;;;;22.02;14.38;;;;;;;3.77;45.53;96316.13;5042250;28;20072;-64
2023/02/16 11:03:45;;;;;;;22.20;14.38;;;;;;;2.84;47.73;96323.84;5048160;28;20040;-64
2023/02/16 11:06:21;;;;;;;17.33;12.65;;;;;;;4.42;44.76;96311.13;5045868;28;20089;-64
2023/02/16 11:08:53;;;;;;;19.17;13.57;;;;;;;5.04;42.45;96322.97;5045781;28;20169;-65
2023/02/16 11:11:21;;;;;;;22.17;14.85;;;;;;;5.47;41.57;96310.66;5041546;28;20051;-64
2023/02/16 11:13:47;;;;;;;21.87;14.87;;;;;;;6.07;41.16;96298.63;5045105;28;21087;-64
2023/02/16 11:16:18;;;;;;;22.42;16.55;;;;;;;5.44;42.55;96306.47;5044252;28;20075;-64
2023/02/16 11:19:02;;;;;;;18.13;12.95;;;;;;;5.08;42.88;96308.56;5041355;28;20053;-63
2023/02/16 11:21:46;;;;;;;16.95;12.00;;;;;;;6.69;40.68;96301.19;5045985;28;20540;-64
2023/02/16 11:24:13;;;;;;;17.92;13.13;;;;;;;6.90;39.56;96297.59;5046667;28;20065;-64
2023/02/16 11:26:38;;;;;;;31.73;16.88;;;;;;;7.98;38.18;96288.72;5059754;28;20211;-64
2023/02/16 11:29:17;;;;;;;21.33;15.15;;;;;;;7.95;37.58;96275.75;5044645;28;20534;-65
2023/02/16 11:31:43;;;;;;;12.85;9.30;;;;;;;7.90;37.55;96293.91;5046885;28;20351;-64
2023/02/16 11:34:15;;;;;;;27.92;19.50;;;;;;;7.12;40.16;96285.06;5039887;28;20066;-64
2023/02/16 11:36:42;;;;;;;14.50;10.27;;;;;;;8.27;37.82;96274.50;5045214;28;20096;-65
2023/02/16 11:39:23;;;;;;;20.85;14.27;;;;;;;8.10;37.89;96277.94;5028777;28;20060;-66
2023/02/16 11:42:08;;;;;;;16.73;12.00;;;;;;;7.01;39.96;96278.94;5044620;28;20099;-75
2023/02/16 11:44:38;;;;;;;14.45;10.57;;;;;;;7.89;38.08;96276.34;5045990;28;20073;-76
2023/02/16 11:47:40;;;;;;;16.73;10.98;;;;;;;8.55;37.33;96274.50;5046094;28;20049;-76
2023/02/16 11:50:22;;;;;;;14.70;10.70;;;;;;;6.65;40.56;96286.56;5003980;28;20045;-75
2023/02/16 11:52:52;;;;;;;16.30;11.02;;;;;;;6.93;40.25;96276.16;5024935;28;20533;-72
2023/02/16 11:55:25;;;;;;;18.88;12.07;;;;;;;7.04;40.84;96277.00;5042697;28;20574;-75
2023/02/16 11:57:51;;;;;;;15.82;11.85;;;;;;;7.11;39.79;96272.81;5056581;28;20058;-75
2023/02/16 12:00:21;;;;;;;15.60;9.57;;;;;;;7.57;39.08;96262.44;5046021;28;20097;-76
2023/02/16 12:03:05;;;;;;;18.75;11.38;;;;;;;8.10;38.51;96262.03;5039751;28;20098;-75
2023/02/16 12:05:42;;;;;;;18.48;11.65;;;;;;;7.57;39.24;96275.69;5013179;28;20161;-75
2023/02/16 12:08:23;;;;;;;16.65;11.05;;;;;;;7.94;38.96;96260.81;5047289;28;20075;-75
2023/02/16 12:11:08;;;;;;;18.77;10.90;;;;;;;7.89;38.48;96258.59;5044961;28;20634;-75
2023/02/16 12:13:45;;;;;;;17.15;11.60;;;;;;;8.40;38.24;96260.06;5047544;28;20140;-75
2023/02/16 12:16:42;;;;;;;23.05;11.05;;;;;;;8.95;37.24;96251.19;5044624;28;20886;-75
2023/02/16 12:19:23;;;;;;;15.23;11.02;;;;;;;8.03;38.47;96249.34;5046047;28;20025;-75